Time;durP1;ratioP1;P1;durP2;ratioP2;P2;SDS_P1;SDS_P2;PMS_P1;PMS_P2;Temp;Humidity;BMP_temperature;BMP_pressure;BME280_temperature;BME280_humidity;BME280_pressure;Samples;Min_cycle;Max_cycle;Signal;HPM_P1;HPM_P2
2022/04/03 00:00:41;;;;;;;3.23;2.93;;;7.30;45.40;;;10.72;36.02;102067.28;5034624;28;20604;-57
2022/04/03 00:03:09;;;;;;;3.60;2.50;;;7.30;45.30;;;10.75;35.97;102056.44;5034740;28;20197;-58
2022/04/03 00:05:43;;;;;;;4.77;3.10;;;7.40;45.20;;;10.78;36.35;102059.63;5039038;28;20647;-58
2022/04/03 00:08:15;;;;;;;2.90;2.57;;;7.50;45.30;;;10.84;35.92;102060.84;5039382;28;20216;-57
2022/04/03 00:10:46;;;;;;;3.27;2.97;;;7.50;45.40;;;10.88;36.21;102060.44;5039073;28;20191;-57
2022/04/03 00:13:13;;;;;;;3.37;2.77;;;7.50;45.50;;;10.94;36.51;102055.53;5035181;28;20274;-59
2022/04/03 00:15:42;;;;;;;5.43;3.13;;;7.60;45.50;;;10.97;36.36;102055.28;5035013;28;20546;-58
2022/04/03 00:18:10;;;;;;;3.53;3.20;;;7.60;46.00;;;10.99;36.17;102058.59;5035708;28;20222;-57
2022/04/03 00:20:41;;;;;;;4.20;3.70;;;7.70;45.20;;;10.99;36.76;102056.78;5037950;28;20191;-58
2022/04/03 00:23:09;;;;;;;4.00;3.40;;;7.70;45.60;;;10.99;36.09;102055.94;5037782;28;20213;-57
2022/04/03 00:25:37;;;;;;;5.03;3.67;;;7.60;45.60;;;10.99;36.39;102055.94;5037810;28;20222;-58
2022/04/03 00:28:05;;;;;;;4.53;3.30;;;7.60;45.70;;;10.97;36.47;102064.00;5037835;28;20213;-56
2022/04/03 00:30:32;;;;;;;4.13;3.40;;;7.60;45.80;;;10.98;36.95;102054.31;5038129;28;20501;-56
2022/04/03 00:33:00;;;;;;;3.87;3.57;;;7.60;45.80;;;11.00;37.05;102063.72;5038868;28;20205;-58
2022/04/03 00:35:27;;;;;;;3.77;3.27;;;7.60;46.10;;;10.99;36.37;102053.31;5038111;28;20190;-58
2022/04/03 00:37:56;;;;;;;5.70;3.30;;;7.60;46.30;;;10.98;36.74;102049.03;5036983;28;20229;-57
2022/04/03 00:40:26;;;;;;;5.07;3.60;;;7.60;46.50;;;10.95;36.79;102057.22;5037357;28;20192;-56
2022/04/03 00:42:53;;;;;;;4.27;3.30;;;7.60;46.40;;;10.93;36.78;102056.53;5037363;28;20201;-58
2022/04/03 00:45:22;;;;;;;3.60;3.30;;;7.60;47.00;;;10.89;37.28;102055.97;5037110;28;20193;-59
2022/04/03 00:47:53;;;;;;;3.20;2.90;;;7.60;46.40;;;10.84;37.14;102059.06;5036858;28;20289;-60
2022/04/03 00:50:21;;;;;;;4.40;3.17;;;7.50;47.10;;;10.82;37.36;102055.72;5038195;28;20202;-59
2022/04/03 00:52:49;;;;;;;5.67;3.30;;;7.50;47.40;;;10.80;37.68;102057.69;5037215;28;20274;-57
2022/04/03 00:55:17;;;;;;;5.80;3.93;;;7.50;47.30;;;10.76;37.58;102039.69;5037394;28;20192;-58
2022/04/03 00:57:45;;;;;;;5.50;3.57;;;7.40;47.30;;;10.74;37.96;102045.06;5036448;28;20225;-57
2022/04/03 01:00:13;;;;;;;3.53;3.20;;;7.40;47.60;;;10.71;37.88;102045.38;5037973;28;20511;-58
2022/04/03 01:02:41;;;;;;;3.20;2.90;;;7.40;47.60;;;10.70;37.96;102041.06;5038071;28;20277;-58
2022/04/03 01:05:10;;;;;;;3.67;3.10;;;7.40;47.70;;;10.70;38.07;102041.06;5040730;28;20194;-57
2022/04/03 01:07:37;;;;;;;5.23;3.20;;;7.40;48.00;;;10.72;37.93;102041.75;5054149;28;20631;-59
2022/04/03 01:10:05;;;;;;;3.23;2.90;;;7.40;48.10;;;10.73;38.34;102035.53;5057340;28;20252;-59
2022/04/03 01:12:39;;;;;;;4.30;3.37;;;7.40;48.00;;;10.69;38.45;102034.16;5056946;28;20196;-58
2022/04/03 01:15:18;;;;;;;3.93;3.30;;;7.40;48.50;;;10.66;38.38;102029.19;5057072;28;20212;-57
2022/04/03 01:17:46;;;;;;;3.10;2.80;;;7.40;48.40;;;10.62;38.67;102022.56;5056877;28;20224;-57
2022/04/03 01:20:14;;;;;;;4.17;2.93;;;7.30;48.30;;;10.58;38.32;102036.94;5057214;28;20194;-57
2022/04/03 01:22:41;;;;;;;5.47;3.40;;;7.30;48.20;;;10.52;39.00;102034.91;5053638;28;20202;-54
2022/04/03 01:25:10;;;;;;;6.77;3.97;;;7.30;48.50;;;10.49;39.11;102029.91;5056412;28;20280;-59
2022/04/03 01:27:39;;;;;;;3.10;2.80;;;7.30;48.70;;;10.47;38.75;102037.13;5056474;28;20240;-58
2022/04/03 01:30:10;;;;;;;4.37;2.70;;;7.20;48.80;;;10.42;38.52;102027.97;5056059;28;20511;-59
2022/04/03 01:32:38;;;;;;;3.77;3.13;;;7.20;48.60;;;10.37;39.08;102031.03;5058215;28;20281;-58
2022/04/03 01:35:06;;;;;;;3.37;3.07;;;7.20;48.60;;;10.33;39.01;102028.84;5056530;28;20834;-57
2022/04/03 01:37:34;;;;;;;2.63;2.43;;;7.20;48.90;;;10.28;39.04;102029.25;5055929;28;20298;-58
2022/04/03 01:40:02;;;;;;;3.03;2.47;;;7.10;48.90;;;10.24;39.07;102032.31;5054504;28;20197;-57
2022/04/03 01:42:31;;;;;;;3.00;2.67;;;7.10;49.00;;;10.20;39.38;102031.75;5056452;28;20186;-58
2022/04/03 01:44:58;;;;;;;4.47;2.77;;;7.00;49.10;;;10.17;39.60;102029.41;5056503;28;20191;-57
2022/04/03 01:47:26;;;;;;;2.70;2.50;;;7.00;49.30;;;10.15;39.57;102021.66;5055919;28;20240;-58
2022/04/03 01:49:53;;;;;;;5.80;2.47;;;6.90;49.40;;;10.17;39.48;102029.41;5056416;28;20631;-58
2022/04/03 01:52:21;;;;;;;2.60;2.40;;;6.90;49.50;;;10.16;39.50;102025.13;5056894;28;20196;-58
2022/04/03 01:54:49;;;;;;;3.80;2.23;;;6.90;49.30;;;10.16;39.55;102019.84;5056535;28;20212;-56
2022/04/03 01:57:16;;;;;;;2.17;1.97;;;6.90;49.30;;;10.15;39.57;102024.28;5053619;28;20225;-57
2022/04/03 01:59:45;;;;;;;4.43;2.23;;;6.90;49.60;;;10.15;39.69;102023.44;5055589;28;20218;-57
2022/04/03 02:02:12;;;;;;;3.90;2.63;;;6.90;49.70;;;10.15;39.39;102023.44;5056005;28;20217;-57
2022/04/03 02:04:39;;;;;;;2.70;2.50;;;6.90;49.80;;;10.15;39.27;102023.44;5055584;28;20190;-56
2022/04/03 02:07:07;;;;;;;2.43;2.07;;;6.80;49.70;;;10.13;39.05;102025.38;5055391;28;20211;-57
2022/04/03 02:09:34;;;;;;;3.97;2.03;;;6.80;49.70;;;10.14;39.06;102021.81;5055919;28;20182;-56
2022/04/03 02:12:05;;;;;;;3.97;2.20;;;6.80;49.90;;;10.17;39.60;102021.53;5054884;28;20188;-58
2022/04/03 02:14:33;;;;;;;3.93;2.10;;;6.80;49.80;;;10.21;39.44;102022.91;5049681;28;20492;-57
2022/04/03 02:17:02;;;;;;;2.97;2.07;;;6.80;49.80;;;10.25;39.26;102015.53;5034928;28;20227;-58
2022/04/03 02:19:29;;;;;;;4.50;2.10;;;6.90;49.70;;;10.27;38.96;102022.31;5035280;28;20218;-58
2022/04/03 02:21:59;;;;;;;4.30;2.23;;;6.90;49.60;;;10.28;39.15;102018.72;5035236;28;20513;-56
2022/04/03 02:24:27;;;;;;;2.37;2.13;;;6.90;49.40;;;10.28;39.28;102021.38;5035127;28;20585;-57
2022/04/03 02:26:54;;;;;;;5.07;1.83;;;6.90;49.30;;;10.28;39.18;102010.84;5034160;28;20216;-57
2022/04/03 02:29:22;;;;;;;3.67;2.00;;;6.90;49.30;;;10.29;38.65;102012.50;5036296;28;20201;-56
2022/04/03 02:31:49;;;;;;;4.33;2.17;;;6.90;49.90;;;10.28;39.04;102008.22;5036103;28;20186;-59
2022/04/03 02:34:18;;;;;;;3.93;2.43;;;6.90;49.40;;;10.25;39.11;102013.75;5035188;28;20205;-58
2022/04/03 02:36:46;;;;;;;3.30;2.60;;;7.00;49.60;;;10.22;39.48;102008.78;5034574;28;20312;-55
2022/04/03 02:39:13;;;;;;;3.07;1.67;;;6.90;49.50;;;10.18;38.96;102005.59;5034635;28;20214;-58
2022/04/03 02:41:40;;;;;;;2.00;1.80;;;6.90;49.60;;;10.15;39.31;102008.50;5034287;28;20265;-58
2022/04/03 02:44:08;;;;;;;2.07;1.97;;;6.90;49.50;;;10.10;39.89;102013.31;5034851;28;20197;-59
2022/04/03 02:46:35;;;;;;;4.43;2.37;;;6.90;49.60;;;10.06;39.64;102008.47;5035355;28;20190;-58
2022/04/03 02:49:02;;;;;;;4.90;2.70;;;6.90;49.40;;;10.00;39.47;102003.78;5034602;28;20186;-56
2022/04/03 02:51:31;;;;;;;3.63;2.70;;;6.80;49.40;;;9.94;40.24;102001.69;5033893;28;20595;-56
2022/04/03 02:53:58;;;;;;;3.53;2.00;;;6.80;49.30;;;9.87;39.37;101996.16;5034711;28;20576;-55
2022/04/03 02:56:26;;;;;;;2.77;2.20;;;6.80;49.50;;;9.80;39.81;101991.59;5034377;28;20206;-57
2022/04/03 02:58:53;;;;;;;4.33;2.57;;;6.70;49.60;;;9.74;39.77;101987.75;5034301;28;20224;-55
2022/04/03 03:01:20;;;;;;;3.10;2.13;;;6.60;49.80;;;9.67;39.98;101996.31;5034586;28;20201;-58
2022/04/03 03:03:48;;;;;;;5.53;2.10;;;6.50;49.60;;;9.61;39.96;101996.84;5035589;28;20553;-58
2022/04/03 03:06:15;;;;;;;2.30;2.00;;;6.50;49.90;;;9.53;40.16;101995.72;5034346;28;20519;-56
2022/04/03 03:08:44;;;;;;;2.13;1.93;;;6.40;50.00;;;9.46;40.25;101999.88;5034181;28;20239;-56
2022/04/03 03:11:11;;;;;;;5.53;2.60;;;6.40;50.30;;;9.38;40.38;101991.84;5034525;28;20197;-57
2022/04/03 03:13:38;;;;;;;3.23;2.50;;;6.30;50.30;;;9.30;40.79;101999.56;5035161;28;20195;-54
2022/04/03 03:16:06;;;;;;;2.87;2.50;;;6.20;50.50;;;9.24;40.59;102002.75;5033528;28;20195;-56
2022/04/03 03:18:34;;;;;;;4.03;2.20;;;6.10;50.60;;;9.20;40.70;102003.97;5034307;28;20227;-57
2022/04/03 03:21:01;;;;;;;2.60;2.27;;;6.10;50.70;;;9.15;40.71;101995.66;5033776;28;20202;-59
2022/04/03 03:23:29;;;;;;;3.03;1.90;;;6.00;51.00;;;9.12;40.84;101995.94;5033676;28;20206;-55
2022/04/03 03:25:58;;;;;;;3.83;2.53;;;6.00;51.00;;;9.09;41.13;101996.19;5033888;28;20536;-55
2022/04/03 03:28:26;;;;;;;3.83;2.50;;;6.00;51.30;;;9.06;40.82;101985.97;5033827;28;20223;-58
2022/04/03 03:30:53;;;;;;;4.30;2.80;;;5.90;51.20;;;9.03;40.93;101991.50;5033839;28;20195;-58
2022/04/03 03:33:20;;;;;;;2.53;2.00;;;5.90;51.20;;;9.02;40.96;101987.19;5033755;28;20210;-57
2022/04/03 03:35:48;;;;;;;2.53;2.03;;;5.90;51.20;;;8.97;41.02;101992.03;5034509;28;20202;-55
2022/04/03 03:38:15;;;;;;;3.20;2.00;;;5.80;50.80;;;8.92;40.80;101986.31;5034412;28;20211;-57
2022/04/03 03:40:42;;;;;;;3.43;2.10;;;5.80;50.80;;;8.87;40.94;101983.28;5033638;28;20265;-55
2022/04/03 03:43:11;;;;;;;2.30;2.10;;;5.80;51.40;;;8.83;40.97;101992.38;5033791;28;20578;-60
2022/04/03 03:45:39;;;;;;;2.90;2.23;;;5.80;51.10;;;8.83;41.11;101989.75;5053154;28;20648;-57
2022/04/03 03:48:10;;;;;;;2.20;2.00;;;5.70;50.90;;;8.83;41.08;101989.75;5052772;28;20217;-58
2022/04/03 03:50:37;;;;;;;2.60;2.20;;;5.70;51.00;;;8.85;40.97;101993.06;5053527;28;20563;-58
2022/04/03 03:53:05;;;;;;;4.40;2.27;;;5.70;51.00;;;8.88;40.92;101986.72;5055655;28;20198;-57
2022/04/03 03:55:32;;;;;;;3.63;2.00;;;5.70;51.20;;;8.91;40.71;101986.47;5057145;28;20231;-57
2022/04/03 03:58:01;;;;;;;2.67;2.10;;;5.60;51.10;;;8.92;41.02;101983.72;5057925;28;20692;-58
2022/04/03 04:00:30;;;;;;;8.40;2.50;;;5.60;51.30;;;8.94;40.82;101984.41;5039785;28;20319;-57
2022/04/03 04:02:58;;;;;;;5.43;2.73;;;5.70;51.10;;;8.94;40.71;101976.53;5056994;28;20190;-57
2022/04/03 04:05:25;;;;;;;3.27;2.13;;;5.70;50.90;;;8.91;40.48;101987.31;5056959;28;20186;-57
2022/04/03 04:07:52;;;;;;;3.90;2.50;;;5.70;50.60;;;8.87;40.49;101985.09;5056716;28;20245;-57
2022/04/03 04:10:20;;;;;;;4.13;2.40;;;5.60;50.40;;;8.82;40.60;101982.84;5056937;28;20670;-56
2022/04/03 04:12:48;;;;;;;3.57;1.97;;;5.60;50.30;;;8.73;40.36;101984.47;5056967;28;20191;-57
2022/04/03 04:15:16;;;;;;;2.20;2.00;;;5.60;50.10;;;8.69;40.20;101987.50;5057238;28;20660;-55
2022/04/03 04:17:47;;;;;;;2.90;2.27;;;5.60;50.30;;;8.64;40.81;101984.41;5045492;28;20215;-56
2022/04/03 04:20:18;;;;;;;3.33;2.20;;;5.50;50.50;;;8.61;40.74;101984.69;5037053;28;20545;-57
2022/04/03 04:22:47;;;;;;;2.67;2.40;;;5.50;50.50;;;8.55;40.66;101995.72;5036835;28;20270;-56
2022/04/03 04:25:17;;;;;;;2.27;1.87;;;5.40;50.50;;;8.51;40.66;101994.31;5036833;28;20202;-56
2022/04/03 04:27:45;;;;;;;2.27;2.07;;;5.40;50.60;;;8.47;40.79;101987.66;5036054;28;20214;-58
2022/04/03 04:30:15;;;;;;;2.50;2.30;;;5.30;50.70;;;8.43;40.96;101986.25;5036048;28;20637;-57
2022/04/03 04:32:45;;;;;;;3.43;2.47;;;5.30;50.60;;;8.38;40.83;101984.03;5036367;28;20198;-58
2022/04/03 04:35:15;;;;;;;2.70;2.20;;;5.30;50.80;;;8.35;41.23;101981.66;5037589;28;20569;-58
2022/04/03 04:37:43;;;;;;;5.30;2.30;;;5.20;51.20;;;8.33;41.32;101974.88;5036021;28;20210;-58
2022/04/03 04:40:11;;;;;;;3.57;2.43;;;5.20;51.30;;;8.33;41.02;101974.88;5036457;28;20553;-59
2022/04/03 04:42:39;;;;;;;3.63;2.33;;;5.20;51.30;;;8.32;41.20;101979.28;5036473;28;20191;-58
2022/04/03 04:45:09;;;;;;;2.43;2.17;;;5.20;51.20;;;8.30;41.10;101975.13;5036757;28;20186;-58
2022/04/03 04:47:48;;;;;;;4.27;2.70;;;5.20;51.20;;;8.27;41.21;101980.63;5036147;28;20222;-59
2022/04/03 04:50:18;;;;;;;2.13;1.93;;;5.10;51.10;;;8.26;41.05;101984.19;5037458;28;20693;-56
2022/04/03 04:52:45;;;;;;;2.73;2.17;;;5.10;51.10;;;8.23;41.30;101980.03;5035929;28;20183;-56
2022/04/03 04:55:13;;;;;;;5.10;2.30;;;5.10;51.10;;;8.19;41.47;101976.84;5036362;28;20218;-57
2022/04/03 04:57:40;;;;;;;3.07;2.30;;;5.10;51.30;;;8.18;41.41;101972.53;5035335;28;20663;-58
2022/04/03 05:00:13;;;;;;;4.07;2.00;;;5.10;51.60;;;8.18;41.67;101982.19;5036072;28;20215;-57
2022/04/03 05:02:45;;;;;;;7.97;2.60;;;5.00;51.60;;;8.15;41.84;101978.03;5035907;28;20200;-58
2022/04/03 05:05:15;;;;;;;3.47;2.13;;;5.00;52.00;;;8.13;41.54;101984.38;5035183;28;20198;-56
2022/04/03 05:07:44;;;;;;;2.40;2.17;;;5.00;52.50;;;8.12;41.86;101980.09;5044529;28;20233;-56
2022/04/03 05:10:13;;;;;;;5.23;2.60;;;5.00;52.70;;;8.11;42.23;101976.63;5055912;28;20329;-58
2022/04/03 05:12:42;;;;;;;4.23;2.03;;;5.00;52.80;;;8.10;42.37;101972.38;5055752;28;20213;-58
2022/04/03 05:15:11;;;;;;;2.80;1.97;;;4.90;52.80;;;8.10;42.35;101975.00;5055679;28;20182;-58
2022/04/03 05:17:40;;;;;;;3.30;2.27;;;4.90;52.90;;;8.10;42.14;101980.25;5054949;28;20206;-56
2022/04/03 05:20:09;;;;;;;2.53;1.80;;;5.00;53.10;;;8.10;42.32;101979.41;5055679;28;20216;-58
2022/04/03 05:22:39;;;;;;;5.13;2.00;;;4.90;53.00;;;8.11;42.51;101976.63;5055632;28;20198;-57
2022/04/03 05:25:08;;;;;;;2.13;1.67;;;5.00;53.30;;;8.14;42.63;101975.56;5053874;28;20740;-55
2022/04/03 05:27:36;;;;;;;5.13;2.10;;;5.00;53.20;;;8.12;42.54;101973.06;5056922;28;20684;-58
2022/04/03 05:30:05;;;;;;;5.63;2.60;;;5.00;53.20;;;8.12;43.08;101975.69;5055566;28;20617;-57
2022/04/03 05:32:32;;;;;;;4.67;2.60;;;5.00;53.60;;;8.14;43.11;101973.78;5055665;28;20523;-58
2022/04/03 05:35:00;;;;;;;3.20;2.13;;;5.00;53.70;;;8.16;42.95;101969.22;5055716;28;20263;-60
2022/04/03 05:37:27;;;;;;;5.03;2.40;;;5.00;53.90;;;8.20;43.12;101970.63;5055094;28;20214;-58
2022/04/03 05:39:56;;;;;;;2.57;2.10;;;5.10;53.70;;;8.24;42.69;101965.13;5055224;28;20215;-58
2022/04/03 05:42:23;;;;;;;3.90;2.20;;;5.00;54.00;;;8.26;42.66;101965.81;5053380;28;20199;-58
2022/04/03 05:44:50;;;;;;;4.60;2.17;;;5.10;53.80;;;8.25;42.76;101967.59;5055525;28;20203;-57
2022/04/03 05:47:18;;;;;;;3.03;2.30;;;5.10;53.80;;;8.25;43.01;101967.59;5054654;28;20621;-57
2022/04/03 05:49:46;;;;;;;4.00;2.33;;;5.10;53.90;;;8.24;43.19;101965.13;5053972;28;20288;-58
2022/04/03 05:52:14;;;;;;;4.30;2.40;;;5.10;53.70;;;8.23;43.24;101971.31;5054730;28;20644;-57
2022/04/03 05:54:41;;;;;;;2.80;2.00;;;5.10;53.80;;;8.20;43.20;101969.81;5043600;28;20202;-58
2022/04/03 05:57:10;;;;;;;4.17;2.37;;;5.10;53.60;;;8.15;42.89;101967.53;5035065;28;20225;-58
2022/04/03 05:59:38;;;;;;;4.93;2.30;;;5.10;53.30;;;8.17;43.29;101968.28;5034963;28;20222;-58
2022/04/03 06:02:06;;;;;;;2.63;2.17;;;5.10;53.40;;;8.18;43.40;101980.41;5034870;28;20190;-58
2022/04/03 06:04:34;;;;;;;2.10;1.90;;;5.10;53.40;;;8.24;42.79;101976.44;5034836;28;20620;-58
2022/04/03 06:07:02;;;;;;;2.93;2.67;;;5.20;53.70;;;8.32;43.11;101979.28;5034506;28;20679;-58
2022/04/03 06:09:30;;;;;;;2.77;1.70;;;5.20;53.70;;;8.44;42.72;101988.72;5051057;28;20187;-58
2022/04/03 06:11:57;;;;;;;2.97;2.10;;;5.30;53.80;;;8.58;42.79;101984.97;5054649;28;20198;-57
2022/04/03 06:14:26;;;;;;;2.40;1.90;;;5.30;53.80;;;8.70;42.64;101983.91;5055503;28;20195;-58
2022/04/03 06:16:53;;;;;;;2.03;1.77;;;5.40;53.80;;;8.83;42.22;101984.50;5054183;28;20293;-58
2022/04/03 06:19:21;;;;;;;2.37;2.13;;;5.50;53.80;;;8.95;42.47;101983.44;5054552;28;20543;-59
2022/04/03 06:21:48;;;;;;;3.30;2.50;;;5.60;53.60;;;9.04;42.22;101985.25;5054517;28;20631;-59
2022/04/03 06:24:16;;;;;;;2.77;2.30;;;5.70;53.50;;;9.14;42.19;101986.13;5050766;28;20192;-59
2022/04/03 06:26:43;;;;;;;1.73;1.63;;;5.80;53.30;;;9.26;42.14;101986.84;5034200;28;20237;-58
2022/04/03 06:29:11;;;;;;;2.50;2.30;;;5.90;53.30;;;9.34;41.73;101995.69;5034470;28;20193;-58
2022/04/03 06:31:40;;;;;;;2.63;2.03;;;5.90;53.20;;;9.40;42.06;101989.09;5034531;28;20192;-59
2022/04/03 06:34:07;;;;;;;3.53;2.40;;;6.00;53.10;;;9.45;41.79;101982.47;5034303;28;20191;-58
2022/04/03 06:36:34;;;;;;;3.47;2.40;;;6.10;53.20;;;9.51;41.73;101979.28;5034249;28;20204;-57
2022/04/03 06:39:01;;;;;;;4.00;2.03;;;6.20;53.40;;;9.60;41.74;101985.53;5034332;28;20353;-58
2022/04/03 06:41:29;;;;;;;5.50;2.30;;;6.20;53.30;;;9.67;41.99;102001.56;5034078;28;20494;-58
2022/04/03 06:43:58;;;;;;;1.57;1.47;;;6.30;53.40;;;9.71;41.73;101987.19;5034415;28;20202;-58
2022/04/03 06:46:26;;;;;;;3.27;2.13;;;6.40;53.20;;;9.75;41.56;101993.81;5033889;28;20191;-57
2022/04/03 06:48:55;;;;;;;2.23;2.00;;;6.40;53.40;;;9.78;41.71;101993.53;5034432;28;20610;-59
2022/04/03 06:51:22;;;;;;;3.43;1.80;;;6.50;54.00;;;9.84;41.84;101987.75;5034454;28;20194;-58
2022/04/03 06:53:50;;;;;;;3.20;2.00;;;6.50;53.20;;;9.91;42.34;101984.41;5034139;28;20513;-56
2022/04/03 06:56:17;;;;;;;2.07;1.60;;;6.60;53.50;;;9.98;41.74;101980.22;5033721;28;20195;-59
2022/04/03 06:58:44;;;;;;;3.40;1.97;;;6.60;53.60;;;10.02;41.91;101980.81;5035234;28;20554;-58
2022/04/03 07:01:11;;;;;;;1.87;1.73;;;6.70;53.90;;;10.05;42.42;101980.53;5032400;28;20636;-58
2022/04/03 07:03:39;;;;;;;3.77;1.83;;;6.70;53.90;;;10.09;42.52;101982.72;5035638;28;20582;-58
2022/04/03 07:06:08;;;;;;;2.30;1.73;;;6.80;54.10;;;10.18;42.61;101986.34;5035370;28;20261;-59
2022/04/03 07:08:35;;;;;;;2.70;1.43;;;6.80;54.70;;;10.31;42.96;101991.31;5036015;28;20214;-58
2022/04/03 07:11:03;;;;;;;1.70;1.57;;;6.90;54.80;;;10.52;42.95;101995.41;5036338;28;20211;-59
2022/04/03 07:13:30;;;;;;;2.30;1.20;;;7.00;55.50;;;10.83;42.60;101994.19;5038125;28;20194;-59
2022/04/03 07:15:57;;;;;;;3.70;1.50;;;7.20;56.20;;;11.17;42.60;101989.16;5056306;28;20566;-59
2022/04/03 07:18:25;;;;;;;3.33;1.77;;;7.40;56.00;;;11.48;42.33;101998.41;5055422;28;20245;-59
2022/04/03 07:20:52;;;;;;;3.50;1.90;;;7.60;55.80;;;11.72;42.32;102002.31;5054768;28;20209;-59
2022/04/03 07:23:22;;;;;;;1.40;1.30;;;7.90;55.40;;;11.91;41.75;101991.59;5055236;28;20198;-59
2022/04/03 07:25:49;;;;;;;2.20;1.43;;;8.10;55.00;;;12.12;41.54;101994.72;5056074;28;20187;-59
2022/04/03 07:28:17;;;;;;;2.43;1.50;;;8.30;54.40;;;12.21;40.74;101999.91;5056830;28;20218;-59
2022/04/03 07:30:45;;;;;;;1.47;1.37;;;8.50;53.80;;;12.28;40.99;101994.00;5048745;28;20207;-59
2022/04/03 07:33:12;;;;;;;2.40;1.40;;;8.60;53.40;;;12.44;40.58;102004.66;5036807;28;20178;-59
2022/04/03 07:35:39;;;;;;;2.63;1.53;;;8.70;53.30;;;12.52;40.56;102007.38;5035666;28;20194;-58
2022/04/03 07:38:07;;;;;;;1.63;1.47;;;8.80;53.00;;;12.57;40.55;101999.81;5033343;28;20703;-56
2022/04/03 07:40:35;;;;;;;2.37;1.50;;;8.80;52.70;;;12.58;40.12;102001.47;5033778;28;20226;-57
2022/04/03 07:43:22;;;;;;;2.10;1.57;;;8.90;52.60;;;12.59;40.18;102008.41;5033900;28;20199;-58
2022/04/03 07:45:49;;;;;;;3.90;2.00;;;9.00;52.40;;;12.58;39.90;102012.84;5033931;28;20246;-58
2022/04/03 07:48:17;;;;;;;2.87;1.50;;;9.00;52.20;;;12.54;40.18;102010.69;5049686;28;20296;-59
2022/04/03 07:50:45;;;;;;;4.97;1.50;;;9.10;52.10;;;12.47;40.56;102013.13;5053837;28;20193;-58
2022/04/03 07:53:12;;;;;;;4.33;1.50;;;9.00;52.30;;;12.36;40.45;102017.84;5053197;28;20193;-58
2022/04/03 07:55:42;;;;;;;2.17;1.50;;;9.00;52.60;;;12.28;40.52;102015.13;5052720;28;20245;-56
2022/04/03 07:58:09;;;;;;;2.57;1.60;;;8.90;52.80;;;12.18;41.02;102023.97;5052707;28;20221;-57
2022/04/03 08:00:36;;;;;;;2.93;1.50;;;8.80;53.40;;;12.06;41.52;102019.91;5053543;28;20683;-58
2022/04/03 08:03:04;;;;;;;1.57;1.47;;;8.70;53.60;;;11.94;41.53;102028.22;5051331;28;20190;-59
2022/04/03 08:05:31;;;;;;;2.20;1.93;;;8.60;54.10;;;11.84;41.91;102028.28;5052801;28;20193;-58
2022/04/03 08:07:59;;;;;;;1.70;1.60;;;8.50;54.50;;;11.77;42.49;102021.97;5052620;28;20214;-57
2022/04/03 08:10:26;;;;;;;3.90;1.80;;;8.50;54.90;;;11.74;42.77;102026.72;5053532;28;20190;-59
2022/04/03 08:12:54;;;;;;;2.30;1.90;;;8.40;55.00;;;11.68;42.85;102017.59;5052684;28;20204;-58
2022/04/03 08:15:22;;;;;;;2.37;1.70;;;8.40;55.70;;;11.64;43.16;102021.47;5053196;28;20191;-58
2022/04/03 08:17:49;;;;;;;2.00;1.37;;;8.30;55.70;;;11.59;43.13;102015.81;5052094;28;20214;-58
2022/04/03 08:20:18;;;;;;;1.83;1.53;;;8.20;56.20;;;11.56;43.10;102019.59;5051179;28;20297;-56
2022/04/03 08:22:48;;;;;;;5.07;1.73;;;8.20;56.30;;;11.55;43.56;102022.38;5052761;28;20204;-57
2022/04/03 08:25:16;;;;;;;2.73;1.80;;;8.10;56.70;;;11.57;43.20;102023.88;5053203;28;20183;-60
2022/04/03 08:27:47;;;;;;;2.53;1.70;;;8.10;56.80;;;11.62;44.00;102026.09;5052581;28;20208;-57
2022/04/03 08:30:20;;;;;;;3.57;2.00;;;8.10;57.30;;;11.64;43.80;102028.56;5052646;28;20298;-59
2022/04/03 08:32:48;;;;;;;1.43;1.33;;;8.10;58.20;;;11.72;44.50;102026.03;5053003;28;20223;-58
2022/04/03 08:35:17;;;;;;;1.50;1.40;;;8.10;57.90;;;11.81;43.95;102028.59;5052890;28;20186;-57
2022/04/03 08:37:45;;;;;;;2.50;1.93;;;8.20;57.90;;;11.88;44.05;102024.38;5039509;28;20219;-57
2022/04/03 08:40:19;;;;;;;2.23;1.50;;;8.30;58.00;;;11.99;44.14;102021.50;5035642;28;20229;-57
2022/04/03 08:42:47;;;;;;;5.13;2.00;;;8.30;58.50;;;12.15;43.53;102016.34;5039347;28;20198;-59
2022/04/03 08:45:16;;;;;;;3.30;1.67;;;8.40;57.80;;;12.34;43.12;102015.34;5036534;28;20209;-56
2022/04/03 08:47:45;;;;;;;4.07;1.53;;;8.50;57.80;;;12.52;42.99;102018.78;5035854;28;20217;-59
2022/04/03 08:50:15;;;;;;;2.30;1.80;;;8.70;57.50;;;12.74;43.20;102022.72;5036449;28;20190;-59
2022/04/03 08:52:45;;;;;;;2.33;1.60;;;8.80;57.20;;;12.99;42.49;102013.06;5036259;28;20340;-58
2022/04/03 08:55:14;;;;;;;2.80;1.70;;;9.00;56.90;;;13.78;42.10;102009.03;5037136;28;20205;-57
2022/04/03 08:57:42;;;;;;;2.73;1.40;;;9.30;57.20;;;14.90;40.54;102004.63;5035781;28;20210;-57
2022/04/03 09:00:13;;;;;;;2.30;1.70;;;9.80;57.10;;;15.47;39.51;102010.50;5036479;28;20207;-56
2022/04/03 09:02:46;;;;;;;2.87;1.60;;;10.30;54.60;;;16.19;38.27;102006.44;5039746;28;20262;-60
2022/04/03 09:05:17;;;;;;;3.70;1.60;;;10.90;53.70;;;16.67;37.38;102013.97;5035541;28;20190;-59
2022/04/03 09:08:00;;;;;;;3.07;2.10;;;11.40;52.70;;;16.65;36.51;102010.69;5034737;28;20210;-58
2022/04/03 09:10:28;;;;;;;2.27;1.80;;;11.80;50.60;;;16.42;36.40;102001.09;5036711;28;20187;-59
2022/04/03 09:12:56;;;;;;;3.47;2.07;;;12.00;49.00;;;16.11;36.40;102004.72;5035593;28;20201;-57
2022/04/03 09:15:25;;;;;;;2.97;1.67;;;12.10;48.40;;;15.80;36.59;102005.78;5035542;28;20192;-59
2022/04/03 09:17:56;;;;;;;4.70;1.60;;;12.00;48.00;;;15.48;36.65;102007.66;5034687;28;20210;-60
2022/04/03 09:20:26;;;;;;;1.67;1.37;;;11.80;47.60;;;15.16;37.28;102007.81;5035539;28;20386;-59
2022/04/03 09:22:58;;;;;;;4.23;2.00;;;11.70;47.90;;;14.85;37.64;102010.44;5035351;28;20243;-60
2022/04/03 09:25:33;;;;;;;2.60;1.70;;;11.50;48.30;;;14.58;38.03;102010.81;5035540;28;20681;-59
2022/04/03 09:28:02;;;;;;;3.87;1.83;;;11.20;48.50;;;14.40;38.36;102010.22;5037049;28;20225;-58
2022/04/03 09:30:33;;;;;;;1.53;1.43;;;11.00;49.20;;;14.27;38.79;102007.19;5036469;28;20644;-59
2022/04/03 09:33:05;;;;;;;4.83;1.90;;;10.90;49.80;;;14.21;39.21;102007.88;5035342;28;20197;-58
2022/04/03 09:35:55;;;;;;;4.50;2.07;;;10.80;50.50;;;14.08;39.35;102005.72;5035076;28;20273;-57
2022/04/03 09:38:23;;;;;;;3.90;2.80;;;10.70;51.00;;;14.04;39.75;102003.56;5035099;28;20573;-59
2022/04/03 09:40:52;;;;;;;3.07;2.43;;;10.60;51.10;;;13.94;40.27;102000.25;5034815;28;20218;-57
2022/04/03 09:43:22;;;;;;;2.20;2.00;;;10.50;52.00;;;13.85;40.36;102004.75;5035714;28;20198;-57
2022/04/03 09:45:53;;;;;;;3.43;2.30;;;10.40;52.10;;;13.78;40.34;102005.56;5035555;28;20187;-58
2022/04/03 09:48:26;;;;;;;5.60;4.37;;;10.30;52.50;;;13.72;40.61;102003.53;5034931;28;20210;-57
2022/04/03 09:51:03;;;;;;;3.43;3.13;;;10.20;52.70;;;13.64;40.84;102004.38;5034771;28;20244;-59
2022/04/03 09:53:42;;;;;;;3.17;2.67;;;10.20;53.00;;;13.62;41.05;102000.25;5035507;28;20183;-57
2022/04/03 09:56:11;;;;;;;2.80;2.20;;;10.20;53.50;;;13.69;41.26;101994.16;5034610;28;20201;-59
2022/04/03 09:58:58;;;;;;;2.67;2.20;;;10.10;53.70;;;13.93;41.50;101985.38;5034616;28;20221;-58
2022/04/03 10:01:28;;;;;;;2.93;2.20;;;10.20;54.40;;;14.40;41.15;101981.06;5035950;28;20221;-57
2022/04/03 10:04:00;;;;;;;5.47;3.10;;;10.40;54.90;;;15.15;40.42;101981.44;5034330;28;20214;-58
2022/04/03 10:06:29;;;;;;;3.03;2.63;;;10.60;54.80;;;16.96;38.42;101977.75;5034039;28;20199;-57
2022/04/03 10:08:57;;;;;;;3.27;2.60;;;11.20;54.60;;;18.87;35.62;101974.75;5035266;28;20260;-58
2022/04/03 10:11:26;;;;;;;7.30;4.07;;;12.00;55.00;;;19.84;33.99;101974.44;5036280;28;20189;-57
2022/04/03 10:13:53;;;;;;;4.33;3.47;;;12.80;52.10;;;20.18;33.06;101972.34;5034988;28;20200;-60
2022/04/03 10:16:22;;;;;;;4.93;3.30;;;13.50;50.60;;;19.95;32.45;101969.28;5034406;28;20665;-60
2022/04/03 10:18:51;;;;;;;3.57;2.83;;;14.00;48.60;;;19.93;32.98;101962.50;5034258;28;20191;-59
2022/04/03 10:21:41;;;;;;;4.03;1.90;;;14.40;48.10;;;20.79;32.03;101967.53;5034306;28;20218;-59
2022/04/03 10:24:15;;;;;;;2.07;1.53;;;14.80;46.40;;;21.93;29.87;101956.81;5034288;28;20206;-58
2022/04/03 10:26:51;;;;;;;2.00;1.37;;;15.50;44.10;;;23.12;28.09;101962.56;5033621;28;20308;-59